Time;durP1;ratioP1;P1;durP2;ratioP2;P2;SDS_P1;SDS_P2;PMS_P1;PMS_P2;Temp;Humidity;BMP_temperature;BMP_pressure;BME280_temperature;BME280_humidity;BME280_pressure;Samples;Min_cycle;Max_cycle;Signal;HPM_P1;HPM_P2
2021/03/13 00:00:08;;;;;;;;;;;;;;;19.48;33.49;100889.81;5058542;28;823;-48
2021/03/13 00:02:37;;;;;;;;;;;;;;;20.27;32.08;100888.66;5058600;28;676;-48
2021/03/13 00:05:03;;;;;;;;;;;;;;;20.20;31.83;100874.41;5058257;28;1917;-47
2021/03/13 00:07:28;;;;;;;;;;;;;;;19.98;32.30;100875.78;5058525;28;744;-53
2021/03/13 00:09:54;;;;;;;;;;;;;;;19.59;33.34;100877.56;5068997;28;998;-47
2021/03/13 00:12:19;;;;;;;;;;;;;;;19.43;33.61;100876.06;5078068;28;764;-46
2021/03/13 00:14:45;;;;;;;;;;;;;;;20.35;31.70;100874.22;5077981;28;506;-47
2021/03/13 00:17:10;;;;;;;;;;;;;;;20.31;31.69;100873.16;5078292;28;827;-46
2021/03/13 00:19:36;;;;;;;;;;;;;;;20.05;32.19;100876.25;5078090;28;775;-48
2021/03/13 00:22:01;;;;;;;;;;;;;;;19.64;33.10;100882.19;5078101;28;523;-48
2021/03/13 00:24:26;;;;;;;;;;;;;;;19.05;34.08;100887.69;5071104;28;954;-48
2021/03/13 00:26:52;;;;;;;;;;;;;;;19.95;32.49;100898.44;5057810;28;2369;-47
2021/03/13 00:29:17;;;;;;;;;;;;;;;20.51;31.30;100883.94;5058032;28;891;-46
2021/03/13 00:31:44;;;;;;;;;;;;;;;19.98;32.29;100875.78;5058296;28;1078;-48
2021/03/13 00:34:10;;;;;;;;;;;;;;;19.98;32.41;100875.78;5063105;28;1159;-48
2021/03/13 00:36:36;;;;;;;;;;;;;;;19.19;33.69;100862.22;5078133;28;767;-47
2021/03/13 00:39:02;;;;;;;;;;;;;;;19.78;32.70;100855.56;5077550;28;967;-46
2021/03/13 00:41:28;;;;;;;;;;;;;;;20.53;31.48;100864.28;5078043;28;736;-49
2021/03/13 00:43:54;;;;;;;;;;;;;;;21.03;30.70;100861.09;5077904;28;1432;-46
2021/03/13 00:46:19;;;;;;;;;;;;;;;20.71;30.94;100859.13;5077685;28;1906;-46
2021/03/13 00:48:45;;;;;;;;;;;;;;;20.33;31.89;100865.41;5077346;28;793;-47
2021/03/13 00:51:10;;;;;;;;;;;;;;;19.86;32.67;100861.59;5059618;28;1092;-47
2021/03/13 00:53:36;;;;;;;;;;;;;;;19.32;33.69;100862.38;5077138;28;951;-47
2021/03/13 00:56:01;;;;;;;;;;;;;;;19.70;33.04;100858.13;5038882;28;1349;-48
2021/03/13 00:58:30;;;;;;;;;;;;;;;20.48;31.79;100853.31;5039879;28;1119;-49
2021/03/13 01:01:00;;;;;;;;;;;;;;;20.03;32.55;100850.88;5039992;28;1151;-46
2021/03/13 01:03:32;;;;;;;;;;;;;;;20.03;32.51;100853.63;5057367;28;772;-46
2021/03/13 01:05:58;;;;;;;;;;;;;;;19.43;33.49;100848.47;5039664;28;1979;-51
2021/03/13 01:08:27;;;;;;;;;;;;;;;19.75;33.04;100852.56;5039630;28;1435;-47
2021/03/13 01:11:00;;;;;;;;;;;;;;;20.52;31.56;100852.44;5039442;28;1115;-47
2021/03/13 01:13:31;;;;;;;;;;;;;;;20.04;32.35;100852.53;5038996;28;809;-59
2021/03/13 01:15:58;;;;;;;;;;;;;;;19.94;32.43;100845.19;5039135;28;1329;-57
2021/03/13 01:18:25;;;;;;;;;;;;;;;19.37;33.51;100855.97;5039429;28;1210;-47
2021/03/13 01:20:51;;;;;;;;;;;;;;;19.67;33.19;100851.28;5039521;28;1285;-47
2021/03/13 01:23:21;;;;;;;;;;;;;;;20.51;31.71;100856.31;5057595;28;793;-48
2021/03/13 01:25:46;;;;;;;;;;;;;;;20.06;32.39;100853.03;5074596;28;1984;-48
2021/03/13 01:28:12;;;;;;;;;;;;;;;20.06;32.38;100854.97;5058830;28;1174;-47
2021/03/13 01:30:41;;;;;;;;;;;;;;;19.45;33.24;100844.31;5076589;28;827;-47
2021/03/13 01:33:07;;;;;;;;;;;;;;;19.09;34.22;100843.84;5076982;28;1099;-47
2021/03/13 01:35:33;;;;;;;;;;;;;;;20.07;32.31;100851.94;5042315;28;1300;-56
2021/03/13 01:37:58;;;;;;;;;;;;;;;20.62;31.53;100858.91;5022586;28;1159;-56
2021/03/13 01:40:24;;;;;;;;;;;;;;;20.08;32.33;100856.34;5053837;28;1146;-46
2021/03/13 01:42:51;;;;;;;;;;;;;;;19.83;32.76;100857.47;5059028;28;1223;-47
2021/03/13 01:45:24;;;;;;;;;;;;;;;19.14;34.04;100858.41;5076772;28;1980;-48
2021/03/13 01:47:54;;;;;;;;;;;;;;;20.08;32.20;100864.63;5076608;28;883;-48
2021/03/13 01:50:23;;;;;;;;;;;;;;;20.50;31.70;100871.22;5076576;28;818;-48
2021/03/13 01:52:49;;;;;;;;;;;;;;;19.91;32.51;100870.63;5076504;28;823;-47
2021/03/13 01:55:15;;;;;;;;;;;;;;;19.70;33.05;100866.41;5063077;28;990;-47
2021/03/13 01:57:42;;;;;;;;;;;;;;;19.35;33.49;100874.75;5038833;28;1282;-47
2021/03/13 02:00:13;;;;;;;;;;;;;;;20.00;32.36;100866.06;5022721;28;1218;-47
2021/03/13 02:02:41;;;;;;;;;;;;;;;20.64;31.30;100864.97;5056815;28;712;-47
2021/03/13 02:05:14;;;;;;;;;;;;;;;20.07;32.32;100859.41;5038302;28;1909;-47
2021/03/13 02:07:49;;;;;;;;;;;;;;;19.90;32.56;100857.13;5038976;28;1187;-49
2021/03/13 02:10:16;;;;;;;;;;;;;;;19.23;33.78;100852.25;5070009;28;1026;-47
2021/03/13 02:12:51;;;;;;;;;;;;;;;19.69;33.00;100846.28;5058542;28;1241;-49
2021/03/13 02:15:20;;;;;;;;;;;;;;;20.52;31.47;100846.91;5076458;28;813;-48
2021/03/13 02:17:52;;;;;;;;;;;;;;;20.08;32.14;100844.47;5076872;28;795;-50
2021/03/13 02:20:36;;;;;;;;;;;;;;;19.96;32.49;100844.88;5058928;28;736;-49
2021/03/13 02:23:09;;;;;;;;;;;;;;;19.18;33.87;100835.75;5076339;28;804;-47
2021/03/13 02:25:56;;;;;;;;;;;;;;;19.61;33.43;100844.97;5057137;28;1901;-47
2021/03/13 02:28:40;;;;;;;;;;;;;;;20.48;31.79;100842.25;5038697;28;1301;-58
2021/03/13 02:31:07;;;;;;;;;;;;;;;20.00;32.50;100851.47;5038506;28;1060;-48
2021/03/13 02:33:33;;;;;;;;;;;;;;;19.89;32.46;100844.44;5056165;28;1140;-56
2021/03/13 02:36:10;;;;;;;;;;;;;;;19.25;33.66;100850.03;5058518;28;1692;-51
2021/03/13 02:38:48;;;;;;;;;;;;;;;19.81;32.77;100832.94;5043591;28;1516;-47
2021/03/13 02:41:18;;;;;;;;;;;;;;;20.49;31.69;100846.69;5041958;28;1338;-46
2021/03/13 02:43:45;;;;;;;;;;;;;;;20.16;32.02;100839.13;5042354;28;1279;-49
2021/03/13 02:46:12;;;;;;;;;;;;;;;19.97;32.57;100841.84;5025905;28;1969;-48
2021/03/13 02:48:37;;;;;;;;;;;;;;;19.40;33.67;100846.31;5042047;28;1202;-47
2021/03/13 02:51:03;;;;;;;;;;;;;;;19.35;33.59;100851.88;5025678;28;1174;-53
2021/03/13 02:53:31;;;;;;;;;;;;;;;20.26;32.02;100864.94;5041795;28;1197;-47
2021/03/13 02:56:02;;;;;;;;;;;;;;;20.04;32.28;100863.56;5046281;28;1336;-52
2021/03/13 02:58:30;;;;;;;;;;;;;;;19.82;32.85;100862.19;5062130;28;1134;-53
2021/03/13 03:00:56;;;;;;;;;;;;;;;19.44;33.55;100848.19;5061863;28;867;-48
2021/03/13 03:03:22;;;;;;;;;;;;;;;19.75;32.84;100842.34;5045710;28;1122;-49
2021/03/13 03:06:00;;;;;;;;;;;;;;;20.56;31.34;100841.59;5078573;28;1906;-49
2021/03/13 03:08:28;;;;;;;;;;;;;;;20.02;32.44;100843.72;5078536;28;1255;-53
2021/03/13 03:10:53;;;;;;;;;;;;;;;19.96;32.62;100833.84;5060497;28;1014;-49
2021/03/13 03:13:19;;;;;;;;;;;;;;;19.40;33.50;100832.53;5025212;28;1375;-53
2021/03/13 03:15:45;;;;;;;;;;;;;;;19.66;32.99;100836.66;5059235;28;1532;-53
2021/03/13 03:18:11;;;;;;;;;;;;;;;20.44;31.65;100832.94;5025211;28;1226;-50
2021/03/13 03:20:38;;;;;;;;;;;;;;;20.21;31.83;100845.69;5041740;28;835;-52
2021/03/13 03:23:05;;;;;;;;;;;;;;;20.01;32.33;100828.28;5041085;28;823;-52
2021/03/13 03:25:31;;;;;;;;;;;;;;;19.30;33.71;100817.72;5057374;28;1977;-51
2021/03/13 03:27:57;;;;;;;;;;;;;;;19.52;33.39;100818.31;5077852;28;1630;-51
2021/03/13 03:30:35;;;;;;;;;;;;;;;20.39;31.75;100819.22;5060994;28;1221;-52
2021/03/13 03:33:02;;;;;;;;;;;;;;;20.10;32.03;100812.69;5061425;28;1135;-58
2021/03/13 03:35:30;;;;;;;;;;;;;;;19.90;32.66;100819.28;5044249;28;1163;-47
2021/03/13 03:37:57;;;;;;;;;;;;;;;19.37;33.60;100827.59;5056899;28;2060;-48
2021/03/13 03:40:23;;;;;;;;;;;;;;;19.38;33.56;100816.28;5063716;28;1197;-47
2021/03/13 03:43:07;;;;;;;;;;;;;;;20.22;32.18;100822.50;5060838;28;1095;-47
2021/03/13 03:45:33;;;;;;;;;;;;;;;20.11;32.30;100827.31;5061403;28;1909;-48
2021/03/13 03:48:01;;;;;;;;;;;;;;;19.91;32.38;100831.16;5061007;28;1296;-45
2021/03/13 03:50:26;;;;;;;;;;;;;;;19.46;33.48;100829.44;5060092;28;1167;-48
2021/03/13 03:53:00;;;;;;;;;;;;;;;19.37;33.71;100833.91;5045592;28;1175;-46
2021/03/13 03:55:26;;;;;;;;;;;;;;;20.26;32.15;100835.41;5044995;28;971;-46
2021/03/13 03:57:52;;;;;;;;;;;;;;;20.20;31.79;100844.84;5058478;28;791;-49
2021/03/13 04:00:18;;;;;;;;;;;;;;;19.93;32.50;100828.94;5024220;28;931;-45
2021/03/13 04:02:44;;;;;;;;;;;;;;;19.60;33.12;100832.31;5058551;28;782;-48
2021/03/13 04:05:09;;;;;;;;;;;;;;;19.15;34.13;100842.66;5040712;28;760;-46
2021/03/13 04:07:35;;;;;;;;;;;;;;;20.08;32.32;100831.50;5040720;28;768;-46
2021/03/13 04:10:01;;;;;;;;;;;;;;;20.54;31.55;100826.44;5051542;28;821;-47
2021/03/13 04:12:27;;;;;;;;;;;;;;;19.95;32.63;100810.97;5078339;28;810;-58
2021/03/13 04:14:53;;;;;;;;;;;;;;;19.82;32.76;100834.59;5078946;28;814;-46
2021/03/13 04:17:18;;;;;;;;;;;;;;;19.34;33.59;100817.97;5060131;28;791;-47
2021/03/13 04:19:43;;;;;;;;;;;;;;;19.73;33.07;100807.91;5060282;28;807;-58
2021/03/13 04:22:09;;;;;;;;;;;;;;;20.42;31.77;100808.38;5078054;28;780;-58
2021/03/13 04:24:34;;;;;;;;;;;;;;;19.95;32.50;100810.13;5069924;28;1027;-57
2021/03/13 04:27:00;;;;;;;;;;;;;;;19.88;32.50;100815.19;5040414;28;1914;-58
2021/03/13 04:29:26;;;;;;;;;;;;;;;19.39;33.26;100806.91;5040249;28;780;-58
2021/03/13 04:31:51;;;;;;;;;;;;;;;19.55;33.41;100801.22;5057668;28;1107;-58
2021/03/13 04:34:17;;;;;;;;;;;;;;;20.40;31.71;100805.09;5064364;28;1175;-58
2021/03/13 04:36:42;;;;;;;;;;;;;;;20.08;32.26;100786.50;5060064;28;827;-58
2021/03/13 04:39:08;;;;;;;;;;;;;;;19.93;32.37;100773.72;5054998;28;1015;-58
2021/03/13 04:41:33;;;;;;;;;;;;;;;19.42;33.24;100764.94;5040243;28;840;-49
2021/03/13 04:43:59;;;;;;;;;;;;;;;19.31;33.73;100744.13;5057764;28;806;-50
2021/03/13 04:46:24;;;;;;;;;;;;;;;20.26;32.06;100746.19;5039379;28;1914;-50
2021/03/13 04:48:49;;;;;;;;;;;;;;;20.22;32.02;100759.00;5039956;28;891;-53
2021/03/13 04:51:17;;;;;;;;;;;;;;;19.91;32.71;100760.22;5039705;28;768;-56
2021/03/13 04:53:46;;;;;;;;;;;;;;;19.62;32.98;100763.06;5058466;28;900;-58
2021/03/13 04:56:12;;;;;;;;;;;;;;;19.04;34.07;100770.31;5078040;28;788;-56
2021/03/13 04:58:37;;;;;;;;;;;;;;;20.03;32.44;100773.59;5077287;28;792;-55
2021/03/13 05:01:03;;;;;;;;;;;;;;;20.26;31.73;100768.28;5077645;28;764;-55
2021/03/13 05:03:29;;;;;;;;;;;;;;;19.94;32.55;100761.59;5077431;28;787;-60
2021/03/13 05:05:54;;;;;;;;;;;;;;;19.51;33.08;100761.53;5077071;28;1918;-50
2021/03/13 05:08:20;;;;;;;;;;;;;;;19.03;34.16;100754.88;5077642;28;768;-56
2021/03/13 05:10:45;;;;;;;;;;;;;;;19.98;32.49;100751.59;5059327;28;962;-54
2021/03/13 05:13:10;;;;;;;;;;;;;;;20.68;30.93;100738.94;5057284;28;740;-57
2021/03/13 05:15:36;;;;;;;;;;;;;;;20.17;31.81;100766.22;5057213;28;859;-56
2021/03/13 05:18:01;;;;;;;;;;;;;;;19.87;32.52;100769.41;5057194;28;922;-57
2021/03/13 05:20:27;;;;;;;;;;;;;;;19.29;33.45;100782.16;5057153;28;843;-61
2021/03/13 05:22:52;;;;;;;;;;;;;;;19.70;32.92;100798.28;5057148;28;799;-61
2021/03/13 05:25:17;;;;;;;;;;;;;;;20.46;31.63;100800.31;5070628;28;1984;-59
2021/03/13 05:27:43;;;;;;;;;;;;;;;20.01;32.41;100811.72;5076744;28;832;-64
2021/03/13 05:30:09;;;;;;;;;;;;;;;19.88;32.66;100806.91;5076883;28;770;-59
2021/03/13 05:32:35;;;;;;;;;;;;;;;19.49;33.09;100806.78;5076814;28;1215;-57
2021/03/13 05:35:00;;;;;;;;;;;;;;;19.81;32.89;100797.06;5064259;28;1107;-57
2021/03/13 05:37:26;;;;;;;;;;;;;;;20.51;31.29;100801.06;5056899;28;740;-53
2021/03/13 05:39:52;;;;;;;;;;;;;;;19.89;32.37;100800.28;5056454;28;971;-59
2021/03/13 05:42:18;;;;;;;;;;;;;;;19.80;32.77;100798.16;5056511;28;740;-58
2021/03/13 05:44:44;;;;;;;;;;;;;;;19.30;33.36;100794.84;5038885;28;1003;-56
2021/03/13 05:47:09;;;;;;;;;;;;;;;19.60;33.22;100803.88;5056562;28;1914;-59
2021/03/13 05:49:35;;;;;;;;;;;;;;;20.44;31.53;100813.59;5038752;28;804;-60
2021/03/13 05:52:00;;;;;;;;;;;;;;;19.95;32.22;100810.13;5056606;28;883;-61
2021/03/13 05:54:26;;;;;;;;;;;;;;;19.79;32.56;100818.59;5044990;28;971;-51
2021/03/13 05:56:51;;;;;;;;;;;;;;;19.46;33.21;100815.63;5076542;28;796;-49
2021/03/13 05:59:17;;;;;;;;;;;;;;;19.68;33.11;100822.56;5058268;28;918;-60
2021/03/13 06:01:42;;;;;;;;;;;;;;;20.49;31.37;100819.88;5076395;28;740;-62
2021/03/13 06:04:08;;;;;;;;;;;;;;;19.93;32.28;100829.75;5076480;28;787;-57
2021/03/13 06:06:37;;;;;;;;;;;;;;;19.87;32.46;100838.41;5076504;28;1914;-59
2021/03/13 06:09:02;;;;;;;;;;;;;;;19.32;33.26;100843.06;5072288;28;974;-57
2021/03/13 06:11:28;;;;;;;;;;;;;;;19.39;33.62;100831.72;5056308;28;819;-59
2021/03/13 06:13:54;;;;;;;;;;;;;;;20.38;31.82;100837.69;5061821;28;827;-57
2021/03/13 06:16:19;;;;;;;;;;;;;;;20.15;31.91;100842.19;5062856;28;760;-58
2021/03/13 06:18:47;;;;;;;;;;;;;;;19.95;32.42;100833.03;5062955;28;828;-58
2021/03/13 06:21:40;;;;;;;;;;;;;;;19.57;33.12;100830.16;5062993;28;807;-59
2021/03/13 06:24:08;;;;;;;;;;;;;;;19.47;33.15;100824.72;5059723;28;1679;-59
2021/03/13 06:27:06;;;;;;;;;;;;;;;20.40;31.48;100821.69;5063426;28;1914;-62
2021/03/13 06:29:32;;;;;;;;;;;;;;;19.90;32.54;100829.53;5029534;28;1253;-59
2021/03/13 06:32:04;;;;;;;;;;;;;;;19.87;32.53;100830.13;5062947;28;1295;-63
2021/03/13 06:34:29;;;;;;;;;;;;;;;19.44;33.44;100831.63;5070967;28;1084;-57
2021/03/13 06:37:13;;;;;;;;;;;;;;;19.75;32.82;100839.56;5082768;28;739;-59
2021/03/13 06:39:39;;;;;;;;;;;;;;;20.47;31.67;100849.75;5073671;28;954;-58
2021/03/13 06:42:20;;;;;;;;;;;;;;;19.92;32.36;100841.06;5062718;28;748;-59
2021/03/13 06:44:52;;;;;;;;;;;;;;;19.88;32.47;100842.78;5063259;28;760;-59
2021/03/13 06:47:30;;;;;;;;;;;;;;;19.21;33.59;100851.72;5062718;28;1905;-60
2021/03/13 06:50:14;;;;;;;;;;;;;;;19.72;32.78;100851.22;5063012;28;776;-58
2021/03/13 06:52:40;;;;;;;;;;;;;;;20.54;31.55;100854.06;5062607;28;823;-63
2021/03/13 06:55:06;;;;;;;;;;;;;;;20.98;30.77;100850.09;5074906;28;1112;-55
2021/03/13 06:57:32;;;;;;;;;;;;;;;20.32;31.74;100855.47;5082937;28;1038;-60
2021/03/13 07:00:00;;;;;;;;;;;;;;;20.17;32.30;100850.97;5064335;28;795;-54
2021/03/13 07:02:26;;;;;;;;;;;;;;;19.64;32.93;100849.09;5082487;28;791;-57
2021/03/13 07:04:51;;;;;;;;;;;;;;;19.19;34.01;100848.44;5082327;28;843;-63
2021/03/13 07:07:27;;;;;;;;;;;;;;;20.12;32.09;100840.81;5082495;28;1981;-59
2021/03/13 07:09:53;;;;;;;;;;;;;;;20.35;31.88;100838.31;5053743;28;1042;-62
2021/03/13 07:12:48;;;;;;;;;;;;;;;20.13;32.03;100845.25;5062120;28;760;-59
2021/03/13 07:15:16;;;;;;;;;;;;;;;19.69;33.19;100834.44;5049183;28;1340;-62
2021/03/13 07:17:42;;;;;;;;;;;;;;;19.18;34.08;100821.97;5062252;28;871;-57
2021/03/13 07:20:08;;;;;;;;;;;;;;;20.05;32.38;100822.97;5062589;28;795;-66
2021/03/13 07:22:33;;;;;;;;;;;;;;;20.26;32.11;100820.75;5062190;28;799;-59
2021/03/13 07:24:59;;;;;;;;;;;;;;;20.02;32.40;100818.88;5052450;28;1030;-58
2021/03/13 07:27:24;;;;;;;;;;;;;;;19.92;32.63;100816.25;5078748;28;1971;-57
2021/03/13 07:29:50;;;;;;;;;;;;;;;19.06;34.28;100814.91;5078899;28;818;-57
2021/03/13 07:32:16;;;;;;;;;;;;;;;19.92;32.69;100817.06;5061042;28;1216;-59
2021/03/13 07:34:43;;;;;;;;;;;;;;;20.52;31.66;100813.75;5068789;28;1088;-60
2021/03/13 07:37:08;;;;;;;;;;;;;;;20.06;32.37;100810.81;5040811;28;903;-57
2021/03/13 07:39:35;;;;;;;;;;;;;;;20.01;32.36;100808.97;5058454;28;1018;-59
2021/03/13 07:42:07;;;;;;;;;;;;;;;19.23;33.73;100819.19;5040305;28;815;-59
2021/03/13 07:44:32;;;;;;;;;;;;;;;20.04;32.64;100816.63;5058975;28;768;-60
2021/03/13 07:46:58;;;;;;;;;;;;;;;20.49;31.48;100819.06;5058574;28;1910;-59
2021/03/13 07:49:24;;;;;;;;;;;;;;;20.03;32.34;100805.91;5058175;28;839;-60
2021/03/13 07:51:50;;;;;;;;;;;;;;;19.87;32.59;100799.75;5058771;28;589;-59
2021/03/13 07:54:15;;;;;;;;;;;;;;;19.23;34.09;100805.41;5064052;28;991;-60
2021/03/13 07:56:41;;;;;;;;;;;;;;;19.86;32.78;100807.19;5059996;28;829;-59
2021/03/13 07:59:10;;;;;;;;;;;;;;;20.61;31.37;100810.31;5078434;28;763;-64
2021/03/13 08:01:46;;;;;;;;;;;;;;;19.99;32.61;100816.69;5078325;28;780;-58
2021/03/13 08:04:31;;;;;;;;;;;;;;;19.99;32.61;100805.66;5078373;28;820;-58
2021/03/13 08:06:59;;;;;;;;;;;;;;;19.20;34.08;100808.75;5078122;28;1906;-56
2021/03/13 08:09:25;;;;;;;;;;;;;;;19.99;32.55;100803.72;5071031;28;966;-56
2021/03/13 08:11:50;;;;;;;;;;;;;;;20.54;31.60;100809.84;5058069;28;784;-60
2021/03/13 08:14:29;;;;;;;;;;;;;;;20.04;32.50;100813.06;5023665;28;1074;-60
2021/03/13 08:17:00;;;;;;;;;;;;;;;19.75;32.85;100806.47;5058011;28;804;-59
2021/03/13 08:19:26;;;;;;;;;;;;;;;19.20;34.14;100800.47;5040262;28;1461;-57
2021/03/13 08:22:08;;;;;;;;;;;;;;;20.04;32.54;100785.47;5057890;28;827;-60
2021/03/13 08:24:43;;;;;;;;;;;;;;;20.20;32.02;100784.09;5057476;28;959;-60
2021/03/13 08:27:09;;;;;;;;;;;;;;;19.87;32.85;100785.97;5040021;28;1902;-59
2021/03/13 08:29:45;;;;;;;;;;;;;;;19.67;33.26;100790.59;5057601;28;945;-60
2021/03/13 08:32:11;;;;;;;;;;;;;;;19.51;33.48;100789.94;5039781;28;1057;-60
2021/03/13 08:34:36;;;;;;;;;;;;;;;20.42;31.98;100779.94;5066948;28;1104;-59
2021/03/13 08:37:15;;;;;;;;;;;;;;;20.06;32.57;100786.78;5077601;28;791;-61
2021/03/13 08:39:40;;;;;;;;;;;;;;;19.91;32.72;100774.03;5068311;28;1005;-60
2021/03/13 08:42:06;;;;;;;;;;;;;;;19.42;33.62;100775.13;5039713;28;844;-60
2021/03/13 08:44:32;;;;;;;;;;;;;;;19.67;33.54;100774.84;5057505;28;847;-60
2021/03/13 08:47:03;;;;;;;;;;;;;;;20.50;31.86;100768.22;5057332;28;1967;-59
2021/03/13 08:49:29;;;;;;;;;;;;;;;20.11;32.65;100769.34;5057501;28;875;-53
2021/03/13 08:52:10;;;;;;;;;;;;;;;19.99;32.80;100767.84;5057495;28;808;-60
2021/03/13 08:54:43;;;;;;;;;;;;;;;19.28;34.23;100769.53;5065763;28;1018;-57
2021/03/13 08:57:09;;;;;;;;;;;;;;;19.90;33.04;100777.91;5077197;28;788;-59
2021/03/13 08:59:35;;;;;;;;;;;;;;;20.61;31.78;100764.16;5076989;28;752;-58
2021/03/13 09:02:11;;;;;;;;;;;;;;;20.09;32.78;100757.78;5077244;28;783;-62
2021/03/13 09:04:37;;;;;;;;;;;;;;;19.85;33.11;100755.06;5077188;28;736;-58
2021/03/13 09:07:03;;;;;;;;;;;;;;;19.27;34.09;100763.16;5076872;28;1964;-60
2021/03/13 09:09:29;;;;;;;;;;;;;;;19.98;32.90;100760.69;5069294;28;1076;-61
2021/03/13 09:11:55;;;;;;;;;;;;;;;20.48;31.88;100763.00;5057508;28;763;-60
2021/03/13 09:14:21;;;;;;;;;;;;;;;20.07;32.57;100763.59;5038938;28;787;-60
2021/03/13 09:16:46;;;;;;;;;;;;;;;19.85;33.01;100758.66;5056981;28;799;-60
2021/03/13 09:19:13;;;;;;;;;;;;;;;19.23;34.27;100769.56;5056932;28;772;-60
2021/03/13 09:21:48;;;;;;;;;;;;;;;19.86;33.05;100781.56;5056699;28;815;-59
2021/03/13 09:24:18;;;;;;;;;;;;;;;20.47;31.96;100777.91;5043993;28;1020;-56
2021/03/13 09:26:47;;;;;;;;;;;;;;;19.98;32.68;100776.44;5076676;28;1905;-58
2021/03/13 09:29:12;;;;;;;;;;;;;;;19.85;33.26;100774.38;5076481;28;732;-58
2021/03/13 09:31:38;;;;;;;;;;;;;;;19.26;34.17;100777.25;5076456;28;1036;-57
2021/03/13 09:34:13;;;;;;;;;;;;;;;19.96;33.17;100773.13;5053905;28;1120;-56
2021/03/13 09:36:38;;;;;;;;;;;;;;;20.64;31.74;100771.84;5056795;28;732;-61
2021/03/13 09:39:04;;;;;;;;;;;;;;;20.02;33.05;100766.44;5042190;28;980;-58
2021/03/13 09:41:29;;;;;;;;;;;;;;;19.88;33.28;100760.84;5076459;28;779;-59
2021/03/13 09:43:55;;;;;;;;;;;;;;;19.15;34.65;100755.31;5076269;28;748;-59
2021/03/13 09:46:20;;;;;;;;;;;;;;;19.92;33.05;100752.75;5076409;28;1902;-59
2021/03/13 09:48:46;;;;;;;;;;;;;;;20.63;31.79;100747.28;5075822;28;932;-63
2021/03/13 09:51:11;;;;;;;;;;;;;;;20.06;32.74;100752.84;5076145;28;756;-60
2021/03/13 09:53:38;;;;;;;;;;;;;;;19.98;32.89;100741.38;5075967;28;943;-58
2021/03/13 09:56:03;;;;;;;;;;;;;;;19.24;34.51;100740.88;5038488;28;891;-61
2021/03/13 09:58:29;;;;;;;;;;;;;;;19.85;33.54;100741.28;5056015;28;756;-61
2021/03/13 10:00:54;;;;;;;;;;;;;;;20.55;31.92;100731.41;5056222;28;752;-58
2021/03/13 10:03:20;;;;;;;;;;;;;;;20.05;32.90;100727.19;5038881;28;756;-58
2021/03/13 10:05:49;;;;;;;;;;;;;;;19.98;32.93;100721.25;5055970;28;1963;-60
2021/03/13 10:08:17;;;;;;;;;;;;;;;19.36;34.30;100718.41;5056259;28;759;-60
2021/03/13 10:10:42;;;;;;;;;;;;;;;19.82;33.59;100718.69;5073207;28;1002;-61
2021/03/13 10:13:08;;;;;;;;;;;;;;;20.64;31.83;100721.31;5076239;28;743;-61
2021/03/13 10:15:34;;;;;;;;;;;;;;;19.94;33.30;100717.44;5076218;28;854;-58
2021/03/13 10:18:04;;;;;;;;;;;;;;;20.00;33.06;100713.47;5076060;28;791;-62
2021/03/13 10:20:47;;;;;;;;;;;;;;;19.31;34.39;100727.56;5058117;28;871;-61
2021/03/13 10:23:28;;;;;;;;;;;;;;;19.94;33.17;100721.00;5058492;28;1434;-56
2021/03/13 10:25:56;;;;;;;;;;;;;;;20.50;32.07;100722.06;5056488;28;1906;-64
2021/03/13 10:28:29;;;;;;;;;;;;;;;20.11;32.84;100720.47;5056017;28;835;-63
2021/03/13 10:31:08;;;;;;;;;;;;;;;19.97;32.95;100719.59;5055860;28;820;-62
2021/03/13 10:33:34;;;;;;;;;;;;;;;19.23;34.39;100719.94;5055978;28;1210;-69
2021/03/13 10:36:00;;;;;;;;;;;;;;;20.22;32.77;100714.81;5076297;28;816;-63
2021/03/13 10:38:25;;;;;;;;;;;;;;;20.50;32.27;100713.78;5074976;28;935;-61
2021/03/13 10:40:51;;;;;;;;;;;;;;;20.10;33.06;100707.78;5074457;28;1034;-67
2021/03/13 10:43:17;;;;;;;;;;;;;;;19.86;33.21;100709.81;5075920;28;780;-67
2021/03/13 10:45:56;;;;;;;;;;;;;;;19.21;34.57;100703.69;5075841;28;1979;-70
2021/03/13 10:48:23;;;;;;;;;;;;;;;19.99;33.18;100693.34;5057688;28;1386;-60
2021/03/13 10:50:48;;;;;;;;;;;;;;;20.41;32.46;100696.28;5075712;28;819;-65
2021/03/13 10:53:46;;;;;;;;;;;;;;;20.09;32.98;100689.59;5075920;28;816;-67
2021/03/13 10:56:12;;;;;;;;;;;;;;;19.74;33.74;100690.91;5032537;28;1221;-62
2021/03/13 10:58:38;;;;;;;;;;;;;;;19.19;34.84;100683.06;5056382;28;784;-65
2021/03/13 11:01:05;;;;;;;;;;;;;;;20.15;32.83;100682.88;5059381;28;807;-61
2021/03/13 11:03:31;;;;;;;;;;;;;;;20.40;32.20;100691.88;5059424;28;827;-61
2021/03/13 11:05:56;;;;;;;;;;;;;;;20.09;33.05;100697.88;5059416;28;1906;-61
2021/03/13 11:08:22;;;;;;;;;;;;;;;19.70;33.76;100693.44;5059357;28;803;-62
2021/03/13 11:10:48;;;;;;;;;;;;;;;19.24;34.70;100685.75;5077235;28;947;-64
2021/03/13 11:13:13;;;;;;;;;;;;;;;19.94;33.27;100684.31;5079350;28;831;-59
2021/03/13 11:15:39;;;;;;;;;;;;;;;20.59;32.23;100682.72;5079214;28;883;-65
2021/03/13 11:18:04;;;;;;;;;;;;;;;20.09;33.13;100688.75;5079131;28;835;-58
2021/03/13 11:20:30;;;;;;;;;;;;;;;19.92;33.33;100681.00;5079137;28;815;-60
2021/03/13 11:22:58;;;;;;;;;;;;;;;19.27;34.50;100672.19;5078846;28;824;-60
2021/03/13 11:25:24;;;;;;;;;;;;;;;19.83;33.53;100669.84;5064060;28;1014;-59
2021/03/13 11:27:50;;;;;;;;;;;;;;;20.61;32.09;100681.28;5059276;28;1913;-58
2021/03/13 11:30:15;;;;;;;;;;;;;;;19.98;33.03;100680.66;5058719;28;843;-59
2021/03/13 11:32:41;;;;;;;;;;;;;;;19.97;33.41;100680.94;5058823;28;1203;-62
2021/03/13 11:35:06;;;;;;;;;;;;;;;19.38;34.51;100680.34;5054220;28;1191;-62
2021/03/13 11:37:32;;;;;;;;;;;;;;;19.54;34.39;100681.78;5078930;28;804;-62
2021/03/13 11:39:57;;;;;;;;;;;;;;;20.31;32.66;100680.69;5078402;28;998;-62
2021/03/13 11:42:28;;;;;;;;;;;;;;;19.99;33.44;100676.78;5078819;28;819;-60
2021/03/13 11:44:59;;;;;;;;;;;;;;;19.95;33.24;100672.13;5078602;28;815;-59
2021/03/13 11:47:25;;;;;;;;;;;;;;;19.45;34.13;100665.06;5078607;28;1913;-60
2021/03/13 11:49:51;;;;;;;;;;;;;;;19.70;33.79;100665.00;5078889;28;815;-60
2021/03/13 11:52:18;;;;;;;;;;;;;;;20.58;32.19;100672.78;5078357;28;798;-60
2021/03/13 11:54:44;;;;;;;;;;;;;;;20.05;33.17;100671.16;5051289;28;955;-63
2021/03/13 11:57:10;;;;;;;;;;;;;;;20.03;33.20;100663.19;5058540;28;740;-61
2021/03/13 11:59:35;;;;;;;;;;;;;;;19.43;34.27;100661.81;5058164;28;776;-61
2021/03/13 12:02:01;;;;;;;;;;;;;;;19.51;34.19;100662.25;5058440;28;803;-59
2021/03/13 12:04:26;;;;;;;;;;;;;;;20.40;32.58;100653.22;5058395;28;760;-59
2021/03/13 12:06:52;;;;;;;;;;;;;;;20.06;33.10;100656.25;5058068;28;1917;-60
2021/03/13 12:09:17;;;;;;;;;;;;;;;19.95;33.33;100661.09;5063634;28;1018;-60
2021/03/13 12:11:42;;;;;;;;;;;;;;;19.42;34.43;100651.03;5077559;28;887;-60
2021/03/13 12:14:08;;;;;;;;;;;;;;;19.35;34.77;100651.44;5078012;28;760;-62
2021/03/13 12:16:34;;;;;;;;;;;;;;;20.27;32.89;100651.22;5078161;28;767;-59
2021/03/13 12:19:01;;;;;;;;;;;;;;;20.25;32.76;100653.47;5078055;28;811;-61
2021/03/13 12:21:27;;;;;;;;;;;;;;;19.94;33.55;100652.00;5077820;28;859;-63
2021/03/13 12:23:52;;;;;;;;;;;;;;;19.68;34.07;100646.00;5057876;28;958;-61
2021/03/13 12:26:18;;;;;;;;;;;;;;;19.46;34.66;100646.59;5058066;28;1913;-62
2021/03/13 12:28:43;;;;;;;;;;;;;;;20.44;32.64;100634.91;5057823;28;859;-63
2021/03/13 12:31:09;;;;;;;;;;;;;;;20.15;33.24;100633.19;5057715;28;914;-61
2021/03/13 12:33:34;;;;;;;;;;;;;;;20.01;33.39;100643.34;5057923;28;1089;-59
2021/03/13 12:36:00;;;;;;;;;;;;;;;19.55;34.22;100630.22;5077756;28;792;-63
2021/03/13 12:38:25;;;;;;;;;;;;;;;19.43;34.43;100637.00;5077711;28;1034;-60
2021/03/13 12:40:51;;;;;;;;;;;;;;;20.40;32.65;100633.88;5058559;28;1013;-61
2021/03/13 12:43:16;;;;;;;;;;;;;;;20.05;33.25;100627.84;5057698;28;740;-61
2021/03/13 12:45:42;;;;;;;;;;;;;;;20.00;33.64;100634.22;5057375;28;1918;-61
2021/03/13 12:48:08;;;;;;;;;;;;;;;19.43;34.53;100639.75;5057413;28;840;-59
2021/03/13 12:50:33;;;;;;;;;;;;;;;19.49;34.61;100633.03;5057371;28;783;-58
2021/03/13 12:52:58;;;;;;;;;;;;;;;20.48;32.75;100644.22;5057306;28;783;-59
2021/03/13 12:55:24;;;;;;;;;;;;;;;21.04;31.68;100644.31;5072256;28;1007;-59